Terminal Aerodrome Forecast
Issued by NWS

Home | Current Version | Previous Version | Text Only | Print | Product List | Glossary On
Versions: 1 2 3 4 5 6 7 8 9 10 11 12 13 14 15 16 17 18 19 20
000
FTUS44 KLZK 292000 AAA
TAFPBF
TAF AMD
KPBF 292045Z 2921/3018 15010KT P6SM VCTS SCT030CB BKN100
      TEMPO 2923/3003 4SM -TSRA BR SCT015 OVC025CB
     FM300300 19009KT 6SM -SHRA OVC015
     FM301200 24008KT P6SM OVC015
     FM301500 30010KT P6SM SCT015 OVC050=

USA.gov is the U.S. government's official web portal to all federal, state and local government web resources and services.